createdAt,value
2023-02-24T00:02:15.029Z,95.65
2023-02-24T00:04:41.927Z,94.84
2023-02-24T00:07:16.898Z,95.85
2023-02-24T00:09:44.667Z,95.33
2023-02-24T00:12:15.476Z,95.77
2023-02-24T00:14:44.614Z,95.28
2023-02-24T00:17:14.629Z,94.86
2023-02-24T00:19:41.493Z,95.15
2023-02-24T00:22:09.055Z,94.35
2023-02-24T00:24:36.715Z,94.50
2023-02-24T00:27:08.334Z,94.04
2023-02-24T00:29:37.739Z,94.60
2023-02-24T00:32:08.154Z,94.17
2023-02-24T00:34:37.610Z,93.76
2023-02-24T00:37:07.104Z,93.79
2023-02-24T00:39:35.522Z,93.51
2023-02-24T00:42:04.880Z,93.71
2023-02-24T00:44:34.060Z,93.20
2023-02-24T00:47:07.015Z,92.91
2023-02-24T00:49:36.012Z,92.92
2023-02-24T00:52:06.619Z,93.45
2023-02-24T00:54:38.382Z,92.73
2023-02-24T00:57:10.253Z,92.64
2023-02-24T00:59:38.193Z,92.90
2023-02-24T01:02:07.215Z,93.29
2023-02-24T01:04:34.186Z,92.33
2023-02-24T01:07:01.548Z,92.62
2023-02-24T01:09:31.382Z,92.85
2023-02-24T01:12:19.640Z,92.30
2023-02-24T01:14:48.404Z,92.62
2023-02-24T01:17:19.374Z,92.33
2023-02-24T01:19:49.391Z,92.70
2023-02-24T01:22:17.725Z,92.59
2023-02-24T01:24:45.624Z,92.44
2023-02-24T01:27:19.793Z,92.90
2023-02-24T01:29:51.099Z,92.66
2023-02-24T01:32:21.875Z,92.48
2023-02-24T01:34:52.242Z,92.79
2023-02-24T01:37:19.702Z,92.42
2023-02-24T01:39:47.434Z,92.23
2023-02-24T01:42:17.176Z,92.24
2023-02-24T01:44:43.798Z,92.61
2023-02-24T01:47:14.197Z,93.14
2023-02-24T01:49:46.699Z,92.92
2023-02-24T01:52:26.417Z,92.97
2023-02-24T01:55:06.439Z,93.52
2023-02-24T01:57:38.661Z,93.31
2023-02-24T02:00:31.378Z,93.58
2023-02-24T02:03:02.753Z,93.80
2023-02-24T02:05:29.353Z,94.46
2023-02-24T02:07:57.378Z,94.10
2023-02-24T02:10:24.899Z,94.32
2023-02-24T02:12:51.502Z,94.60
2023-02-24T02:15:20.860Z,94.54
2023-02-24T02:18:02.800Z,94.45
2023-02-24T02:21:04.110Z,94.97
2023-02-24T02:23:44.348Z,95.04
2023-02-24T02:26:25.862Z,95.08
2023-02-24T02:29:11.074Z,94.51
2023-02-24T02:32:05.527Z,95.03
2023-02-24T02:34:50.409Z,94.69
2023-02-24T02:37:33.101Z,94.89
2023-02-24T02:40:20.022Z,95.10
2023-02-24T02:43:04.334Z,95.16
2023-02-24T02:45:47.718Z,95.03
2023-02-24T02:48:25.717Z,94.92
2023-02-24T02:50:57.354Z,94.90
2023-02-24T02:54:00.664Z,96.13
2023-02-24T02:56:54.425Z,95.64
2023-02-24T02:59:26.799Z,95.65
2023-02-24T03:02:11.567Z,95.30
2023-02-24T03:04:48.620Z,95.62
2023-02-24T03:07:19.838Z,95.68
2023-02-24T03:09:51.835Z,95.76
2023-02-24T03:12:24.318Z,95.85
2023-02-24T03:15:00.286Z,95.55
2023-02-24T03:17:33.113Z,95.75
2023-02-24T03:20:16.213Z,95.94
2023-02-24T03:22:50.357Z,95.93
2023-02-24T03:25:25.584Z,95.59
2023-02-24T03:27:57.286Z,95.47
2023-02-24T03:30:40.794Z,95.84
2023-02-24T03:33:23.862Z,95.62
2023-02-24T03:35:52.971Z,95.56
2023-02-24T03:38:23.286Z,95.76
2023-02-24T03:40:51.399Z,95.21
2023-02-24T03:43:28.225Z,95.56
2023-02-24T03:45:55.570Z,95.59
2023-02-24T03:48:23.830Z,95.45
2023-02-24T03:50:50.778Z,95.24
2023-02-24T03:53:30.598Z,95.03
2023-02-24T03:56:01.938Z,94.96
2023-02-24T03:58:48.603Z,94.88
2023-02-24T04:01:34.930Z,94.43
2023-02-24T04:04:40.073Z,95.47
2023-02-24T04:07:09.901Z,94.60
2023-02-24T04:09:47.743Z,94.92
2023-02-24T04:12:30.635Z,94.75
2023-02-24T04:15:09.116Z,94.81
2023-02-24T04:17:44.394Z,94.33
2023-02-24T04:20:13.606Z,94.36
2023-02-24T04:22:43.769Z,94.08
2023-02-24T04:25:13.878Z,93.92
2023-02-24T04:27:44.317Z,94.05
2023-02-24T04:30:12.411Z,94.24
2023-02-24T04:32:44.466Z,93.98
2023-02-24T04:35:19.387Z,94.03
2023-02-24T04:37:46.176Z,93.60
2023-02-24T04:40:17.615Z,93.18
2023-02-24T04:42:49.029Z,93.80
2023-02-24T04:45:24.150Z,92.79
2023-02-24T04:47:56.293Z,93.46
2023-02-24T04:50:25.956Z,93.36
2023-02-24T04:53:07.093Z,93.02
2023-02-24T04:55:40.140Z,92.99
2023-02-24T04:58:14.129Z,92.34
2023-02-24T05:00:42.030Z,92.89
2023-02-24T05:03:13.562Z,92.53
2023-02-24T05:05:43.004Z,92.55
2023-02-24T05:08:15.882Z,92.61
2023-02-24T05:10:44.752Z,92.90
2023-02-24T05:13:19.454Z,92.45
2023-02-24T05:15:48.007Z,92.58
2023-02-24T05:18:19.082Z,93.02
2023-02-24T05:21:26.677Z,92.87
2023-02-24T05:23:54.914Z,92.75
2023-02-24T05:26:25.609Z,93.17
2023-02-24T05:28:54.576Z,92.82
2023-02-24T05:31:26.284Z,92.97
2023-02-24T05:33:56.115Z,92.87
2023-02-24T05:36:23.175Z,92.22
2023-02-24T05:38:56.590Z,92.32
2023-02-24T05:41:35.725Z,92.37
2023-02-24T05:44:08.669Z,92.56
2023-02-24T05:46:44.689Z,92.33
2023-02-24T05:49:27.129Z,92.52
2023-02-24T05:51:56.371Z,92.40
2023-02-24T05:54:28.751Z,92.17
2023-02-24T05:57:01.298Z,92.55
2023-02-24T05:59:32.721Z,91.89
2023-02-24T06:02:07.176Z,92.18
2023-02-24T06:04:45.884Z,91.92
2023-02-24T06:07:19.885Z,92.05
2023-02-24T06:09:50.264Z,92.15
2023-02-24T06:12:22.005Z,92.02
2023-02-24T06:14:53.169Z,91.61
2023-02-24T06:17:21.031Z,92.07
2023-02-24T06:19:53.214Z,91.68
2023-02-24T06:22:22.833Z,91.75
2023-02-24T06:24:49.720Z,92.33
2023-02-24T06:27:18.837Z,91.79
2023-02-24T06:29:50.465Z,91.97
2023-02-24T06:32:23.792Z,91.96
2023-02-24T06:34:53.992Z,91.46
2023-02-24T06:37:24.581Z,92.39
2023-02-24T06:39:56.235Z,91.53
2023-02-24T06:42:25.896Z,91.25
2023-02-24T06:44:52.484Z,91.37
2023-02-24T06:47:19.082Z,91.40
2023-02-24T06:49:45.796Z,91.58
2023-02-24T06:52:19.072Z,91.14
2023-02-24T06:54:52.382Z,91.65
2023-02-24T06:57:20.450Z,90.96
2023-02-24T06:59:48.955Z,91.09
2023-02-24T07:02:18.672Z,90.77
2023-02-24T07:04:45.322Z,91.00
2023-02-24T07:07:14.524Z,91.02
2023-02-24T07:09:47.156Z,90.68
2023-02-24T07:12:15.611Z,90.52
2023-02-24T07:14:42.227Z,89.98
2023-02-24T07:17:08.868Z,90.87
2023-02-24T07:19:37.983Z,90.10
2023-02-24T07:22:04.944Z,90.14
2023-02-24T07:24:36.320Z,90.31
2023-02-24T07:27:09.468Z,90.26
2023-02-24T07:29:37.908Z,89.88
2023-02-24T07:32:08.707Z,89.83
2023-02-24T07:34:41.655Z,89.61
2023-02-24T07:37:09.728Z,89.55
2023-02-24T07:39:39.170Z,89.14
2023-02-24T07:42:10.237Z,89.38
2023-02-24T07:44:39.231Z,89.12
2023-02-24T07:47:08.131Z,89.29
2023-02-24T07:49:36.023Z,89.53
2023-02-24T07:52:02.628Z,88.92
2023-02-24T07:54:30.255Z,89.23
2023-02-24T07:56:59.619Z,88.86
2023-02-24T07:59:32.567Z,89.20
2023-02-24T08:02:00.626Z,88.26
2023-02-24T08:04:30.360Z,88.22
2023-02-24T08:06:59.107Z,88.31
2023-02-24T08:09:46.700Z,88.17
2023-02-24T08:12:22.664Z,88.01
2023-02-24T08:14:52.303Z,88.33
2023-02-24T08:17:26.588Z,87.58
2023-02-24T08:20:21.108Z,87.97
2023-02-24T08:22:52.287Z,87.28
2023-02-24T08:25:25.808Z,87.06
2023-02-24T08:28:12.792Z,87.05
2023-02-24T08:30:46.086Z,87.16
2023-02-24T08:33:19.756Z,86.51
2023-02-24T08:36:00.997Z,86.33
2023-02-24T08:38:39.908Z,86.95
2023-02-24T08:41:11.798Z,86.50
2023-02-24T08:43:40.269Z,86.64
2023-02-24T08:46:13.391Z,86.36
2023-02-24T08:48:42.505Z,86.93
2023-02-24T08:51:28.911Z,86.18
2023-02-24T08:54:01.740Z,85.99
2023-02-24T08:56:34.408Z,85.90
2023-02-24T08:59:07.561Z,85.91
2023-02-24T09:01:37.309Z,85.70
2023-02-24T09:04:12.908Z,85.52
2023-02-24T09:06:47.343Z,85.36
2023-02-24T09:09:18.043Z,84.94
2023-02-24T09:11:50.927Z,84.95
2023-02-24T09:14:29.106Z,84.40
2023-02-24T09:17:15.095Z,84.53
2023-02-24T09:19:47.249Z,84.60
2023-02-24T09:22:21.790Z,84.43
2023-02-24T09:24:51.230Z,84.11
2023-02-24T09:27:20.202Z,84.24
2023-02-24T09:29:49.650Z,84.25
2023-02-24T09:32:16.357Z,84.09
2023-02-24T09:34:46.417Z,83.70
2023-02-24T09:37:26.356Z,83.61
2023-02-24T09:39:53.597Z,83.78
2023-02-24T09:42:34.032Z,83.78
2023-02-24T09:45:11.552Z,83.89
2023-02-24T09:47:55.197Z,83.85
2023-02-24T09:50:51.194Z,83.80
2023-02-24T09:53:17.312Z,83.71
2023-02-24T09:56:05.739Z,83.95
2023-02-24T09:58:55.417Z,83.70
2023-02-24T10:01:44.162Z,83.61
2023-02-24T10:04:21.837Z,83.29
2023-02-24T10:06:55.372Z,83.20
2023-02-24T10:09:38.894Z,83.18
2023-02-24T10:12:05.468Z,83.43
2023-02-24T10:14:51.232Z,83.76
2023-02-24T10:17:40.278Z,83.55
2023-02-24T10:20:31.037Z,83.54
2023-02-24T10:23:09.797Z,83.51
2023-02-24T10:25:54.397Z,83.14
2023-02-24T10:28:36.216Z,83.02
2023-02-24T10:31:26.574Z,83.25
2023-02-24T10:34:20.526Z,83.00
2023-02-24T10:36:50.387Z,82.86
2023-02-24T10:39:27.502Z,82.88
2023-02-24T10:42:15.590Z,82.93
2023-02-24T10:45:02.324Z,82.67
2023-02-24T10:47:31.320Z,82.48
2023-02-24T10:50:02.987Z,82.62
2023-02-24T10:53:11.603Z,82.40
2023-02-24T10:55:45.582Z,82.78
2023-02-24T10:58:28.258Z,82.62
2023-02-24T11:01:12.827Z,82.76
2023-02-24T11:03:48.221Z,82.68
2023-02-24T11:06:42.594Z,83.02
2023-02-24T11:09:29.658Z,83.23
2023-02-24T11:12:34.749Z,83.20
2023-02-24T11:15:33.745Z,83.21
2023-02-24T11:18:03.505Z,83.44
2023-02-24T11:20:48.584Z,83.24
2023-02-24T11:23:30.775Z,83.10
2023-02-24T11:26:16.917Z,83.04
2023-02-24T11:28:59.588Z,83.08
2023-02-24T11:31:43.966Z,83.24
2023-02-24T11:34:43.134Z,83.43
2023-02-24T11:37:48.903Z,83.58
2023-02-24T11:40:24.019Z,83.66
2023-02-24T11:42:50.599Z,83.57
2023-02-24T11:46:22.485Z,83.56
2023-02-24T11:48:59.685Z,83.96
2023-02-24T11:51:38.864Z,84.29
2023-02-24T11:54:15.323Z,84.31
2023-02-24T11:56:53.307Z,84.53
2023-02-24T11:59:20.224Z,84.50
2023-02-24T12:02:06.226Z,84.64
2023-02-24T12:04:39.812Z,84.79
2023-02-24T12:07:09.495Z,84.90
2023-02-24T12:09:45.516Z,86.33
2023-02-24T12:12:24.793Z,86.08
2023-02-24T12:14:58.098Z,85.89
2023-02-24T12:17:51.489Z,85.85
2023-02-24T12:20:21.245Z,86.01
2023-02-24T12:22:56.544Z,86.08
2023-02-24T12:25:32.714Z,86.03
2023-02-24T12:28:19.155Z,86.35
2023-02-24T12:31:18.041Z,88.44
2023-02-24T12:33:52.988Z,87.42
2023-02-24T12:36:43.685Z,87.20
2023-02-24T12:39:29.842Z,86.81
2023-02-24T12:42:26.723Z,87.29
2023-02-24T12:45:01.023Z,87.12
2023-02-24T12:47:53.803Z,87.20
2023-02-24T12:50:42.530Z,87.38
2023-02-24T12:53:12.508Z,89.90
2023-02-24T12:55:45.431Z,89.16
2023-02-24T12:58:25.848Z,88.78
2023-02-24T13:01:38.492Z,88.50
2023-02-24T13:04:11.559Z,88.16
2023-02-24T13:06:56.537Z,88.07
2023-02-24T13:09:54.302Z,88.23
2023-02-24T13:12:23.258Z,87.56
2023-02-24T13:14:50.869Z,87.45
2023-02-24T13:17:21.242Z,87.11
2023-02-24T13:19:49.340Z,87.41
2023-02-24T13:22:16.816Z,86.97
2023-02-24T13:24:55.046Z,87.19
2023-02-24T13:27:29.013Z,87.19
2023-02-24T13:30:02.399Z,87.44
2023-02-24T13:32:33.457Z,87.64
2023-02-24T13:35:21.880Z,87.36
2023-02-24T13:37:49.325Z,87.30
2023-02-24T13:40:16.609Z,87.27
2023-02-24T13:43:01.488Z,87.51
2023-02-24T13:45:29.197Z,87.28
2023-02-24T13:48:29.756Z,88.14
2023-02-24T13:51:08.593Z,87.83
2023-02-24T13:53:37.627Z,87.38
2023-02-24T13:56:35.224Z,87.58
2023-02-24T13:59:24.908Z,86.95
2023-02-24T14:02:00.118Z,87.12
2023-02-24T14:04:31.038Z,87.34
2023-02-24T14:07:25.947Z,87.49
2023-02-24T14:10:00.491Z,87.95
2023-02-24T14:12:30.828Z,88.56
2023-02-24T14:14:57.802Z,88.41
2023-02-24T14:17:33.578Z,88.55
2023-02-24T14:20:09.370Z,88.74
2023-02-24T14:22:53.193Z,89.12
2023-02-24T14:25:20.354Z,89.02
2023-02-24T14:27:51.814Z,89.29
2023-02-24T14:30:39.684Z,89.42
2023-02-24T14:33:08.351Z,89.42
2023-02-24T14:35:42.500Z,89.54
2023-02-24T14:38:31.751Z,89.45
2023-02-24T14:40:58.603Z,89.59
2023-02-24T14:43:25.345Z,89.89
2023-02-24T14:45:53.380Z,90.40
2023-02-24T14:48:38.153Z,90.68
2023-02-24T14:51:12.402Z,90.56
2023-02-24T14:53:48.673Z,90.58
2023-02-24T14:56:19.576Z,90.19
2023-02-24T14:58:52.296Z,89.93
2023-02-24T15:01:30.547Z,89.27
2023-02-24T15:04:11.196Z,88.93
2023-02-24T15:06:40.990Z,88.51
2023-02-24T15:09:17.477Z,88.58
2023-02-24T15:11:49.873Z,88.62
2023-02-24T15:14:26.667Z,88.41
2023-02-24T15:16:56.245Z,88.68
2023-02-24T15:19:37.807Z,88.73
2023-02-24T15:22:29.011Z,88.59
2023-02-24T15:25:17.134Z,88.38
2023-02-24T15:28:01.150Z,88.00
2023-02-24T15:30:27.755Z,88.05
2023-02-24T15:33:07.300Z,87.79
2023-02-24T15:35:39.168Z,87.68
2023-02-24T15:38:05.757Z,87.69
2023-02-24T15:40:32.647Z,87.30
2023-02-24T15:43:11.830Z,87.87
2023-02-24T15:45:40.194Z,87.90
2023-02-24T15:48:22.385Z,87.52
2023-02-24T15:50:51.916Z,87.80
2023-02-24T15:53:18.821Z,87.79
2023-02-24T15:55:46.979Z,87.75
2023-02-24T15:58:22.097Z,87.92
2023-02-24T16:00:52.433Z,88.01
2023-02-24T16:03:19.264Z,86.07
2023-02-24T16:05:46.113Z,86.73
2023-02-24T16:08:18.181Z,86.89
2023-02-24T16:10:48.438Z,86.10
2023-02-24T16:13:19.378Z,85.87
2023-02-24T16:15:46.829Z,85.85
2023-02-24T16:18:22.065Z,85.54
2023-02-24T16:20:57.012Z,85.71
2023-02-24T16:23:28.524Z,85.79
2023-02-24T16:25:59.933Z,86.33
2023-02-24T16:28:26.991Z,86.40
2023-02-24T16:30:56.412Z,86.29
2023-02-24T16:33:26.002Z,86.12
2023-02-24T16:35:55.736Z,85.70
2023-02-24T16:38:26.509Z,85.84
2023-02-24T16:40:54.060Z,85.41
2023-02-24T16:43:22.725Z,85.00
2023-02-24T16:46:04.083Z,85.25
2023-02-24T16:48:36.769Z,85.12
2023-02-24T16:51:06.529Z,85.34
2023-02-24T16:53:33.358Z,85.84
2023-02-24T16:56:00.287Z,85.80
2023-02-24T16:58:27.081Z,85.40
2023-02-24T17:00:59.206Z,85.82
2023-02-24T17:03:31.257Z,85.87
2023-02-24T17:05:57.912Z,86.24
2023-02-24T17:08:24.911Z,86.44
2023-02-24T17:10:52.089Z,86.72
2023-02-24T17:13:20.924Z,87.35
2023-02-24T17:15:47.887Z,87.76
2023-02-24T17:18:14.469Z,87.83
2023-02-24T17:20:42.516Z,87.86
2023-02-24T17:23:11.452Z,88.12
2023-02-24T17:25:40.413Z,87.78
2023-02-24T17:28:07.603Z,88.11
2023-02-24T17:30:37.371Z,88.17
2023-02-24T17:33:04.354Z,88.14
2023-02-24T17:35:31.201Z,88.09
2023-02-24T17:37:58.090Z,88.24
2023-02-24T17:40:27.219Z,88.22
2023-02-24T17:42:56.141Z,88.39
2023-02-24T17:45:22.765Z,88.04
2023-02-24T17:47:49.545Z,88.42
2023-02-24T17:50:16.944Z,88.52
2023-02-24T17:52:46.097Z,88.48
2023-02-24T17:55:12.653Z,88.56
2023-02-24T17:57:39.891Z,88.40
2023-02-24T18:00:08.669Z,88.45
2023-02-24T18:02:35.695Z,88.73
2023-02-24T18:05:02.839Z,88.85
2023-02-24T18:07:29.564Z,89.42
2023-02-24T18:09:56.189Z,89.55
2023-02-24T18:12:25.322Z,89.53
2023-02-24T18:15:06.913Z,89.77
2023-02-24T18:17:40.090Z,89.49
2023-02-24T18:20:08.339Z,89.38
2023-02-24T18:22:35.490Z,89.08
2023-02-24T18:25:05.178Z,88.47
2023-02-24T18:27:31.779Z,88.83
2023-02-24T18:29:58.415Z,88.79
2023-02-24T18:32:25.154Z,88.44
2023-02-24T18:34:51.926Z,88.83
2023-02-24T18:37:22.205Z,88.77
2023-02-24T18:39:53.403Z,88.76
2023-02-24T18:42:20.071Z,88.80
2023-02-24T18:44:48.746Z,88.26
2023-02-24T18:47:15.365Z,88.33
2023-02-24T18:49:42.062Z,88.03
2023-02-24T18:52:08.656Z,87.76
2023-02-24T18:54:35.310Z,87.33
2023-02-24T18:57:02.176Z,86.76
2023-02-24T18:59:29.273Z,87.18
2023-02-24T19:01:58.361Z,87.01
2023-02-24T19:04:27.511Z,87.39
2023-02-24T19:06:56.375Z,87.26
2023-02-24T19:20:55.937Z,87.29
2023-02-24T19:23:22.909Z,87.95
2023-02-24T19:25:52.025Z,88.09
2023-02-24T19:28:21.072Z,88.95
2023-02-24T19:30:47.976Z,89.11
2023-02-24T19:33:14.709Z,89.58
2023-02-24T19:35:42.724Z,90.04
2023-02-24T19:38:16.977Z,90.06
2023-02-24T19:40:45.024Z,90.29
2023-02-24T19:43:11.645Z,90.17
2023-02-24T19:45:47.164Z,90.38
2023-02-24T19:48:18.573Z,90.44
2023-02-24T19:50:50.044Z,90.33
2023-02-24T19:53:18.944Z,90.75
2023-02-24T19:55:49.902Z,90.69
2023-02-24T19:58:16.530Z,91.08
2023-02-24T20:00:45.703Z,90.98
2023-02-24T20:03:14.487Z,91.14
2023-02-24T20:05:43.674Z,91.39
2023-02-24T20:08:12.590Z,91.23
2023-02-24T20:10:39.197Z,90.98
2023-02-24T20:13:05.883Z,90.92
2023-02-24T20:15:33.547Z,90.49
2023-02-24T20:18:04.664Z,90.16
2023-02-24T20:20:31.326Z,89.96
2023-02-24T20:22:57.965Z,89.73
2023-02-24T20:25:24.593Z,89.86
2023-02-24T20:27:53.724Z,89.83
2023-02-24T20:30:20.406Z,89.51
2023-02-24T20:32:47.196Z,89.59
2023-02-24T20:35:16.298Z,89.22
2023-02-24T20:37:45.264Z,89.35
2023-02-24T20:40:14.638Z,89.02
2023-02-24T20:42:41.288Z,89.00
2023-02-24T20:45:12.966Z,89.38
2023-02-24T20:47:39.590Z,89.18
2023-02-24T20:50:06.612Z,89.40
2023-02-24T20:52:34.344Z,89.51
2023-02-24T20:55:00.891Z,89.36
2023-02-24T20:57:30.449Z,89.46
2023-02-24T21:00:03.481Z,89.40
2023-02-24T21:02:30.525Z,88.75
2023-02-24T21:04:59.279Z,88.60
2023-02-24T21:07:31.759Z,88.66
2023-02-24T21:09:58.481Z,88.63
2023-02-24T21:12:27.691Z,88.47
2023-02-24T21:14:54.321Z,88.04
2023-02-24T21:17:21.069Z,87.66
2023-02-24T21:19:50.029Z,87.59
2023-02-24T21:22:16.697Z,87.60
2023-02-24T21:24:43.576Z,87.91
2023-02-24T21:27:12.382Z,87.56
2023-02-24T21:29:38.950Z,87.66
2023-02-24T21:32:05.722Z,87.33
2023-02-24T21:34:32.541Z,87.45
2023-02-24T21:37:01.693Z,87.09
2023-02-24T21:39:28.313Z,87.23
2023-02-24T21:41:55.054Z,87.34
2023-02-24T21:44:24.071Z,87.46
2023-02-24T21:46:50.726Z,87.53
2023-02-24T21:49:18.269Z,87.70
2023-02-24T21:51:50.678Z,87.59
2023-02-24T21:54:17.628Z,87.75
2023-02-24T21:56:44.305Z,87.67
2023-02-24T21:59:15.779Z,87.21
2023-02-24T22:01:44.091Z,86.98
2023-02-24T22:04:18.827Z,86.74
2023-02-24T22:06:45.637Z,86.65
2023-02-24T22:09:19.284Z,86.34
2023-02-24T22:11:50.363Z,85.75
2023-02-24T22:14:20.483Z,86.36
2023-02-24T22:16:47.137Z,86.13
2023-02-24T22:19:14.270Z,86.72
2023-02-24T22:21:43.734Z,86.01
2023-02-24T22:24:15.177Z,86.24
2023-02-24T22:26:42.914Z,86.69
2023-02-24T22:29:10.350Z,86.58
2023-02-24T22:31:38.221Z,87.15
2023-02-24T22:34:05.733Z,87.39
2023-02-24T22:36:36.756Z,87.46
2023-02-24T22:39:04.809Z,87.79
2023-02-24T22:41:33.946Z,88.14
2023-02-24T22:44:04.597Z,88.45
2023-02-24T22:46:34.182Z,87.69
2023-02-24T22:49:05.101Z,87.80
2023-02-24T22:51:34.265Z,87.16
2023-02-24T22:54:04.747Z,87.25
2023-02-24T22:56:35.175Z,86.61
2023-02-24T22:59:01.805Z,87.03
2023-02-24T23:01:32.104Z,86.96
2023-02-24T23:04:03.052Z,86.57
2023-02-24T23:06:33.040Z,87.20
2023-02-24T23:09:01.027Z,86.91
2023-02-24T23:11:39.947Z,86.74
2023-02-24T23:14:10.050Z,87.45
2023-02-24T23:16:40.766Z,87.38
2023-02-24T23:19:13.130Z,87.21
2023-02-24T23:21:41.462Z,87.18
2023-02-24T23:24:12.368Z,87.17
2023-02-24T23:26:45.943Z,86.99
2023-02-24T23:29:17.238Z,87.53
2023-02-24T23:31:45.249Z,87.50
2023-02-24T23:34:12.405Z,87.85
2023-02-24T23:36:41.830Z,87.62
2023-02-24T23:39:10.014Z,87.87
2023-02-24T23:41:37.285Z,88.20
2023-02-24T23:44:05.364Z,88.10
2023-02-24T23:46:34.753Z,88.31
2023-02-24T23:49:04.830Z,88.16
2023-02-24T23:51:50.133Z,88.50
2023-02-24T23:54:22.098Z,89.05
2023-02-24T23:56:48.716Z,88.77
2023-02-24T23:59:18.156Z,88.21
